Notre-Dame-du-Portage, Canada
Current Conditions -  °F | °C
As of 1:26 AM on Wednesday 28 Jan 2015 (Local Time) from KFVE Reporting Station
Light Snow Light Snow  
Wind Chill: -10°   Ceiling: 2700
Heat Index:   Visibility: 5mi
Dew Point:   Wind: 16mph
Humidity: 73%   Direction: 350°N
Pressure: 29.75"   Gusts: 24mph
Location:  47.76°N, 69.61°W
Report Text: KFVE 280626Z AUTO 35014G21KT 5SM -SN BKN027 OVC060 M13/M17 A2975 RMK AO2 P0000 T11331172
Loading
Personal Weather Stations






























Interactive Weather Map New forecast layout! Learn more

10-Day Weather Forecast

Advertisements
Track Severe Weather on mobile